createdAt,value
2023-05-19T00:00:24.201Z,68.32
2023-05-19T00:01:15.487Z,68.32
2023-05-19T00:02:06.804Z,68.41
2023-05-19T00:02:57.681Z,68.41
2023-05-19T00:03:48.421Z,68.55
2023-05-19T00:04:39.145Z,68.76
2023-05-19T00:05:30.472Z,68.86
2023-05-19T00:06:21.771Z,69.06
2023-05-19T00:07:13.042Z,69.17
2023-05-19T00:08:03.633Z,69.27
2023-05-19T00:08:54.310Z,69.37
2023-05-19T00:09:45.624Z,69.47
2023-05-19T00:10:36.824Z,69.47
2023-05-19T00:11:28.084Z,69.47
2023-05-19T00:12:19.218Z,69.47
2023-05-19T00:13:10.450Z,69.47
2023-05-19T00:14:01.698Z,69.57
2023-05-19T00:14:52.382Z,69.57
2023-05-19T00:15:43.677Z,69.68
2023-05-19T00:16:34.522Z,69.78
2023-05-19T00:17:25.183Z,69.89
2023-05-19T00:18:16.419Z,70.09
2023-05-19T00:19:07.144Z,70.19
2023-05-19T00:19:58.387Z,70.19
2023-05-19T00:20:49.156Z,70.19
2023-05-19T00:21:40.222Z,70.09
2023-05-19T00:22:31.482Z,69.98
2023-05-19T00:23:22.744Z,69.89
2023-05-19T00:24:14.050Z,69.89
2023-05-19T00:25:05.299Z,69.75
2023-05-19T00:25:56.579Z,69.65
2023-05-19T00:26:47.746Z,69.65
2023-05-19T00:27:39.823Z,69.54
2023-05-19T00:28:29.837Z,69.54
2023-05-19T00:29:20.584Z,69.54
2023-05-19T00:30:11.644Z,69.54
2023-05-19T00:31:02.817Z,69.44
2023-05-19T00:31:53.576Z,69.44
2023-05-19T00:32:44.358Z,69.54
2023-05-19T00:33:35.040Z,69.54
2023-05-19T00:34:25.726Z,69.54
2023-05-19T00:35:16.925Z,69.54
2023-05-19T00:36:07.619Z,69.54
2023-05-19T00:36:58.850Z,69.54
2023-05-19T00:37:49.519Z,69.54
2023-05-19T00:38:40.697Z,69.54
2023-05-19T00:39:31.461Z,69.54
2023-05-19T00:40:22.224Z,69.68
2023-05-19T00:41:13.502Z,69.78
2023-05-19T00:42:04.794Z,69.78
2023-05-19T00:42:55.537Z,69.89
2023-05-19T00:43:46.751Z,69.98
2023-05-19T00:44:37.508Z,69.98
2023-05-19T00:45:28.707Z,69.85
2023-05-19T00:46:20.002Z,69.85
2023-05-19T00:47:11.253Z,69.85
2023-05-19T00:48:02.140Z,69.85
2023-05-19T00:48:52.832Z,69.75
2023-05-19T00:49:44.058Z,69.54
2023-05-19T00:50:34.870Z,69.44
2023-05-19T00:51:25.710Z,69.44
2023-05-19T00:52:16.934Z,69.44
2023-05-19T00:53:08.214Z,69.44
2023-05-19T00:53:58.930Z,69.44
2023-05-19T00:54:49.691Z,69.44
2023-05-19T00:55:40.399Z,69.54
2023-05-19T00:56:31.173Z,69.57
2023-05-19T00:57:21.972Z,69.68
2023-05-19T00:58:12.756Z,69.78
2023-05-19T00:59:03.569Z,69.98
2023-05-19T00:59:54.399Z,70.09
2023-05-19T01:00:45.172Z,70.19
2023-05-19T01:01:35.938Z,70.19
2023-05-19T01:02:26.816Z,70.19
2023-05-19T01:03:17.663Z,70.19
2023-05-19T01:04:08.722Z,70.16
2023-05-19T01:04:59.513Z,70.16
2023-05-19T01:05:50.290Z,70.16
2023-05-19T01:06:41.067Z,70.16
2023-05-19T01:07:31.854Z,70.26
2023-05-19T01:08:22.644Z,70.26
2023-05-19T01:09:13.441Z,70.16
2023-05-19T01:10:04.268Z,70.06
2023-05-19T01:10:55.012Z,70.06
2023-05-19T01:11:45.786Z,70.06
2023-05-19T01:12:36.553Z,69.95
2023-05-19T01:13:27.314Z,69.95
2023-05-19T01:14:18.033Z,69.95
2023-05-19T01:15:08.831Z,69.95
2023-05-19T01:15:59.633Z,70.06
2023-05-19T01:16:50.567Z,69.92
2023-05-19T01:17:41.330Z,69.82
2023-05-19T01:18:32.100Z,69.82
2023-05-19T01:19:22.924Z,69.82
2023-05-19T01:20:13.692Z,69.82
2023-05-19T01:21:04.462Z,69.82
2023-05-19T01:21:55.244Z,69.71
2023-05-19T01:22:46.028Z,69.71
2023-05-19T01:23:36.792Z,69.71
2023-05-19T01:24:27.582Z,69.71
2023-05-19T01:25:18.374Z,69.71
2023-05-19T01:26:09.159Z,69.82
2023-05-19T01:26:59.954Z,69.82
2023-05-19T01:27:50.717Z,69.82
2023-05-19T01:28:41.486Z,69.82
2023-05-19T01:29:32.538Z,69.82
2023-05-19T01:30:23.305Z,69.92
2023-05-19T01:31:14.063Z,69.92
2023-05-19T01:32:04.892Z,69.92
2023-05-19T01:32:55.690Z,69.82
2023-05-19T01:33:46.442Z,69.82
2023-05-19T01:34:37.248Z,69.82
2023-05-19T01:35:27.968Z,69.82
2023-05-19T01:36:18.990Z,69.92
2023-05-19T01:37:09.772Z,69.92
2023-05-19T01:38:00.501Z,69.92
2023-05-19T01:38:51.286Z,69.82
2023-05-19T01:39:42.069Z,69.71
2023-05-19T01:40:33.043Z,69.71
2023-05-19T01:41:24.031Z,69.71
2023-05-19T01:42:14.807Z,69.75
2023-05-19T01:43:05.616Z,69.85
2023-05-19T01:43:56.385Z,70.06
2023-05-19T01:44:47.148Z,70.06
2023-05-19T01:45:38.029Z,70.16
2023-05-19T01:46:28.798Z,70.16
2023-05-19T01:47:19.549Z,70.36
2023-05-19T01:48:11.370Z,70.50
2023-05-19T01:49:01.477Z,70.60
2023-05-19T01:49:52.276Z,70.70
2023-05-19T01:50:43.060Z,70.81
2023-05-19T01:51:33.836Z,70.81
2023-05-19T01:52:24.655Z,70.91
2023-05-19T01:53:15.414Z,70.91
2023-05-19T01:54:06.137Z,70.91
2023-05-19T01:54:56.948Z,70.91
2023-05-19T01:55:47.714Z,70.87
2023-05-19T01:56:38.493Z,70.98
2023-05-19T01:57:29.230Z,70.87
2023-05-19T01:58:20.018Z,70.87
2023-05-19T01:59:10.749Z,70.87
2023-05-19T02:00:01.534Z,70.77
2023-05-19T02:00:52.405Z,70.77
2023-05-19T02:01:43.163Z,70.77
2023-05-19T02:02:34.000Z,70.77
2023-05-19T02:03:24.697Z,70.87
2023-05-19T02:04:15.592Z,70.87
2023-05-19T02:05:06.369Z,70.98
2023-05-19T02:05:57.235Z,70.98
2023-05-19T02:06:47.954Z,70.87
2023-05-19T02:07:38.695Z,70.87
2023-05-19T02:08:29.426Z,70.87
2023-05-19T02:09:20.184Z,70.87
2023-05-19T02:10:10.968Z,70.77
2023-05-19T02:11:01.725Z,70.87
2023-05-19T02:11:52.491Z,70.87
2023-05-19T02:12:43.254Z,70.77
2023-05-19T02:13:34.024Z,70.77
2023-05-19T02:14:25.020Z,70.77
2023-05-19T02:15:15.778Z,70.67
2023-05-19T02:16:06.661Z,70.67
2023-05-19T02:16:57.383Z,70.67
2023-05-19T02:17:48.219Z,70.67
2023-05-19T02:18:39.011Z,70.67
2023-05-19T02:19:29.762Z,70.77
2023-05-19T02:20:20.509Z,70.87
2023-05-19T02:21:11.295Z,70.87
2023-05-19T02:22:02.057Z,70.87
2023-05-19T02:22:52.806Z,70.77
2023-05-19T02:23:43.556Z,70.77
2023-05-19T02:24:34.312Z,70.87
2023-05-19T02:25:25.097Z,70.87
2023-05-19T02:26:15.845Z,70.87
2023-05-19T02:27:06.628Z,70.87
2023-05-19T02:27:57.411Z,70.87
2023-05-19T02:28:48.156Z,70.87
2023-05-19T02:29:38.949Z,70.77
2023-05-19T02:30:29.966Z,70.77
2023-05-19T02:31:20.787Z,70.87
2023-05-19T02:32:11.608Z,70.87
2023-05-19T02:33:02.413Z,70.87
2023-05-19T02:33:53.149Z,70.87
2023-05-19T02:34:43.921Z,70.98
2023-05-19T02:35:34.877Z,70.87
2023-05-19T02:36:25.722Z,70.87
2023-05-19T02:37:16.593Z,70.77
2023-05-19T02:38:07.456Z,70.77
2023-05-19T02:38:58.320Z,70.87
2023-05-19T02:39:49.173Z,70.87
2023-05-19T02:40:40.052Z,70.87
2023-05-19T02:41:30.989Z,70.98
2023-05-19T02:42:22.291Z,70.98
2023-05-19T02:43:13.076Z,70.98
2023-05-19T02:44:03.878Z,70.98
2023-05-19T02:44:54.747Z,70.98
2023-05-19T02:45:45.511Z,70.98
2023-05-19T02:46:36.500Z,70.98
2023-05-19T02:47:27.659Z,71.08
2023-05-19T02:48:18.301Z,71.08
2023-05-19T02:49:09.158Z,71.08
2023-05-19T02:50:00.059Z,71.08
2023-05-19T02:50:50.820Z,70.98
2023-05-19T02:51:41.765Z,70.98
2023-05-19T02:52:32.614Z,70.98
2023-05-19T02:53:23.498Z,70.98
2023-05-19T02:54:14.375Z,71.08
2023-05-19T02:55:05.225Z,71.18
2023-05-19T02:55:56.077Z,71.39
2023-05-19T02:56:46.973Z,71.49
2023-05-19T02:57:37.812Z,71.62
2023-05-19T02:58:28.692Z,71.52
2023-05-19T02:59:19.572Z,71.62
2023-05-19T03:00:10.432Z,71.73
2023-05-19T03:01:01.304Z,71.83
2023-05-19T03:01:52.257Z,71.73
2023-05-19T03:02:43.208Z,71.83
2023-05-19T03:03:34.125Z,71.83
2023-05-19T03:04:25.006Z,71.83
2023-05-19T03:05:15.863Z,71.93
2023-05-19T03:06:06.728Z,72.03
2023-05-19T03:06:57.645Z,72.14
2023-05-19T03:07:48.508Z,72.03
2023-05-19T03:08:41.560Z,72.14
2023-05-19T03:09:30.125Z,72.24
2023-05-19T03:10:21.017Z,72.24
2023-05-19T03:11:11.879Z,72.14
2023-05-19T03:12:02.769Z,72.24
2023-05-19T03:12:53.669Z,72.38
2023-05-19T03:13:44.534Z,72.38
2023-05-19T03:14:35.418Z,72.48
2023-05-19T03:15:26.284Z,72.58
2023-05-19T03:16:17.279Z,72.58
2023-05-19T03:17:08.303Z,72.68
2023-05-19T03:17:59.235Z,72.68
2023-05-19T03:18:50.107Z,72.78
2023-05-19T03:19:40.976Z,72.92
2023-05-19T03:20:31.954Z,73.02
2023-05-19T03:21:22.875Z,73.02
2023-05-19T03:22:13.784Z,73.13
2023-05-19T03:23:04.653Z,73.13
2023-05-19T03:23:55.536Z,73.23
2023-05-19T03:24:46.458Z,73.33
2023-05-19T03:25:37.324Z,73.44
2023-05-19T03:26:28.185Z,73.44
2023-05-19T03:27:19.061Z,73.54
2023-05-19T03:28:09.932Z,73.64
2023-05-19T03:29:00.829Z,73.78
2023-05-19T03:29:51.710Z,73.88
2023-05-19T03:30:42.599Z,73.88
2023-05-19T03:31:33.464Z,73.98
2023-05-19T03:32:24.432Z,74.08
2023-05-19T03:33:15.731Z,74.19
2023-05-19T03:34:06.692Z,74.19
2023-05-19T03:34:57.585Z,74.29
2023-05-19T03:35:48.451Z,74.40
2023-05-19T03:36:39.345Z,74.49
2023-05-19T03:37:30.218Z,74.49
2023-05-19T03:38:21.095Z,74.49
2023-05-19T03:39:11.979Z,74.49
2023-05-19T03:40:02.869Z,74.60
2023-05-19T03:40:53.815Z,74.46
2023-05-19T03:41:44.655Z,74.46
2023-05-19T03:42:35.532Z,74.36
2023-05-19T03:43:26.419Z,74.26
2023-05-19T03:44:17.309Z,74.26
2023-05-19T03:45:08.231Z,74.26
2023-05-19T03:45:59.122Z,74.26
2023-05-19T03:46:49.997Z,74.26
2023-05-19T03:47:41.016Z,74.15
2023-05-19T03:48:31.843Z,74.05
2023-05-19T03:49:22.748Z,73.95
2023-05-19T03:50:13.640Z,73.91
2023-05-19T03:51:04.522Z,73.91
2023-05-19T03:51:55.419Z,73.91
2023-05-19T03:52:46.317Z,73.81
2023-05-19T03:53:37.208Z,73.71
2023-05-19T03:54:28.140Z,73.71
2023-05-19T03:55:18.997Z,73.61
2023-05-19T03:56:09.907Z,73.61
2023-05-19T03:57:00.803Z,73.61
2023-05-19T03:57:51.688Z,73.61
2023-05-19T03:58:42.569Z,73.71
2023-05-19T03:59:33.482Z,73.71
2023-05-19T04:00:24.392Z,73.71
2023-05-19T04:01:15.306Z,73.61
2023-05-19T04:02:07.741Z,73.50
2023-05-19T04:02:57.384Z,73.50
2023-05-19T04:03:48.328Z,73.50
2023-05-19T04:04:39.245Z,73.50
2023-05-19T04:05:30.108Z,73.61
2023-05-19T04:06:21.052Z,73.81
2023-05-19T04:07:11.934Z,73.91
2023-05-19T04:08:02.881Z,74.02
2023-05-19T04:08:53.768Z,74.02
2023-05-19T04:09:44.677Z,74.02
2023-05-19T04:10:35.609Z,74.12
2023-05-19T04:11:26.506Z,74.12
2023-05-19T04:12:17.422Z,74.22
2023-05-19T04:13:08.885Z,74.22
2023-05-19T04:13:59.183Z,74.32
2023-05-19T04:14:50.096Z,74.43
2023-05-19T04:15:41.034Z,74.43
2023-05-19T04:16:31.926Z,74.63
2023-05-19T04:17:22.861Z,74.63
2023-05-19T04:18:13.831Z,74.63
2023-05-19T04:19:04.879Z,74.63
2023-05-19T04:19:55.809Z,74.53
2023-05-19T04:20:46.750Z,74.53
2023-05-19T04:21:37.657Z,74.43
2023-05-19T04:22:28.572Z,74.43
2023-05-19T04:23:19.474Z,74.32
2023-05-19T04:24:10.388Z,74.19
2023-05-19T04:25:01.284Z,74.19
2023-05-19T04:25:52.184Z,74.19
2023-05-19T04:26:43.090Z,74.29
2023-05-19T04:27:33.994Z,74.19
2023-05-19T04:28:24.901Z,74.29
2023-05-19T04:29:15.815Z,74.19
2023-05-19T04:30:06.722Z,74.19
2023-05-19T04:30:57.740Z,74.29
2023-05-19T04:31:48.611Z,74.29
2023-05-19T04:32:39.584Z,74.29
2023-05-19T04:33:30.639Z,74.29
2023-05-19T04:34:21.523Z,74.29
2023-05-19T04:35:12.455Z,74.49
2023-05-19T04:36:03.385Z,74.49
2023-05-19T04:36:54.290Z,74.49
2023-05-19T04:37:45.193Z,74.53
2023-05-19T04:38:36.122Z,74.63
2023-05-19T04:39:27.040Z,74.73
2023-05-19T04:40:17.940Z,74.84
2023-05-19T04:41:08.855Z,74.94
2023-05-19T04:41:59.758Z,74.94
2023-05-19T04:42:50.681Z,75.04
2023-05-19T04:43:41.620Z,75.15
2023-05-19T04:44:32.526Z,75.21
2023-05-19T04:45:23.476Z,75.21
2023-05-19T04:46:14.396Z,75.11
2023-05-19T04:47:05.297Z,75.11
2023-05-19T04:47:56.217Z,75.21
2023-05-19T04:48:47.103Z,75.31
2023-05-19T04:49:37.999Z,75.21
2023-05-19T04:50:28.992Z,75.21
2023-05-19T04:51:19.847Z,75.21
2023-05-19T04:52:10.742Z,75.21
2023-05-19T04:53:01.645Z,75.21
2023-05-19T04:53:52.557Z,75.21
2023-05-19T04:54:43.459Z,75.31
2023-05-19T04:55:34.349Z,75.18
2023-05-19T04:56:25.307Z,75.07
2023-05-19T04:57:16.191Z,75.07
2023-05-19T04:58:07.101Z,74.97
2023-05-19T04:58:58.018Z,75.07
2023-05-19T04:59:48.915Z,74.97
2023-05-19T05:00:39.819Z,75.07
2023-05-19T05:01:30.908Z,75.18
2023-05-19T05:02:21.974Z,75.18
2023-05-19T05:03:13.118Z,75.07
2023-05-19T05:04:04.090Z,75.07
2023-05-19T05:04:54.998Z,75.07
2023-05-19T05:05:45.933Z,75.07
2023-05-19T05:06:36.826Z,75.07
2023-05-19T05:07:28.939Z,75.07
2023-05-19T05:08:18.714Z,74.94
2023-05-19T05:09:09.613Z,74.84
2023-05-19T05:10:00.534Z,74.73
2023-05-19T05:10:51.429Z,74.73
2023-05-19T05:11:42.342Z,74.63
2023-05-19T05:12:33.258Z,74.53
2023-05-19T05:13:24.355Z,74.53
2023-05-19T05:14:15.297Z,74.53
2023-05-19T05:15:06.177Z,74.53
2023-05-19T05:15:57.104Z,74.53
2023-05-19T05:16:48.049Z,74.49
2023-05-19T05:17:38.959Z,74.69
2023-05-19T05:18:29.839Z,74.69
2023-05-19T05:19:20.877Z,74.69
2023-05-19T05:20:11.734Z,74.60
2023-05-19T05:21:02.636Z,74.60
2023-05-19T05:21:53.541Z,74.60
2023-05-19T05:22:44.440Z,74.60
2023-05-19T05:23:35.364Z,74.69
2023-05-19T05:24:26.302Z,74.60
2023-05-19T05:25:17.193Z,74.60
2023-05-19T05:26:08.097Z,74.49
2023-05-19T05:26:59.023Z,74.39
2023-05-19T05:27:49.925Z,74.26
2023-05-19T05:28:40.823Z,74.15
2023-05-19T05:29:31.741Z,74.15
2023-05-19T05:30:22.675Z,74.05
2023-05-19T05:31:13.585Z,74.05
2023-05-19T05:32:04.537Z,73.94
2023-05-19T05:32:55.509Z,73.94
2023-05-19T05:33:46.483Z,73.94
2023-05-19T05:34:37.381Z,74.05
2023-05-19T05:35:28.253Z,74.02
2023-05-19T05:36:19.157Z,74.02
2023-05-19T05:37:10.064Z,73.91
2023-05-19T05:38:00.967Z,73.81
2023-05-19T05:38:51.860Z,73.81
2023-05-19T05:39:42.797Z,73.71
2023-05-19T05:40:33.701Z,73.61
2023-05-19T05:41:24.610Z,73.47
2023-05-19T05:42:15.517Z,73.47
2023-05-19T05:43:06.412Z,73.57
2023-05-19T05:43:57.322Z,73.57
2023-05-19T05:44:48.235Z,73.68
2023-05-19T05:45:39.172Z,73.57
2023-05-19T05:46:30.163Z,73.47
2023-05-19T05:47:21.062Z,73.47
2023-05-19T05:48:12.021Z,73.57
2023-05-19T05:49:02.880Z,73.47
2023-05-19T05:49:53.812Z,73.44
2023-05-19T05:50:44.721Z,73.33
2023-05-19T05:51:35.631Z,73.23
2023-05-19T05:52:26.547Z,73.33
2023-05-19T05:53:17.470Z,73.33
2023-05-19T05:54:08.371Z,73.23
2023-05-19T05:54:59.308Z,73.23
2023-05-19T05:55:50.185Z,73.33
2023-05-19T05:56:41.094Z,73.33
2023-05-19T05:57:31.991Z,73.23
2023-05-19T05:58:22.892Z,73.10
2023-05-19T05:59:13.812Z,73.10
2023-05-19T06:00:04.711Z,73.10
2023-05-19T06:00:55.622Z,73.19
2023-05-19T06:01:46.540Z,73.10
2023-05-19T06:02:37.569Z,73.10
2023-05-19T06:03:28.529Z,73.10
2023-05-19T06:04:19.469Z,72.96
2023-05-19T06:05:10.374Z,72.86
2023-05-19T06:06:01.288Z,73.06
2023-05-19T06:06:52.198Z,73.06
2023-05-19T06:07:43.128Z,72.96
2023-05-19T06:08:34.041Z,72.86
2023-05-19T06:09:24.930Z,72.75
2023-05-19T06:10:15.843Z,72.65
2023-05-19T06:11:06.777Z,72.55
2023-05-19T06:11:57.666Z,72.41
2023-05-19T06:12:48.597Z,72.31
2023-05-19T06:13:39.488Z,72.31
2023-05-19T06:14:30.387Z,72.31
2023-05-19T06:15:21.296Z,72.41
2023-05-19T06:16:12.229Z,72.41
2023-05-19T06:17:03.130Z,72.41
2023-05-19T06:17:54.083Z,72.41
2023-05-19T06:18:45.035Z,72.48
2023-05-19T06:19:35.968Z,72.38
2023-05-19T06:20:26.871Z,72.28
2023-05-19T06:21:17.753Z,72.08
2023-05-19T06:22:08.646Z,71.97
2023-05-19T06:22:59.553Z,71.97
2023-05-19T06:23:50.464Z,72.08
2023-05-19T06:24:41.373Z,72.17
2023-05-19T06:25:32.509Z,72.04
2023-05-19T06:26:22.967Z,72.14
2023-05-19T06:27:13.874Z,72.24
2023-05-19T06:28:04.777Z,72.24
2023-05-19T06:28:55.678Z,72.24
2023-05-19T06:29:46.582Z,72.14
2023-05-19T06:30:37.481Z,72.24
2023-05-19T06:31:28.438Z,72.14
2023-05-19T06:32:19.317Z,72.11
2023-05-19T06:33:10.373Z,72.11
2023-05-19T06:34:01.241Z,72.01
2023-05-19T06:34:52.155Z,71.80
2023-05-19T06:35:43.067Z,71.80
2023-05-19T06:36:33.953Z,71.91
2023-05-19T06:37:24.866Z,71.91
2023-05-19T06:38:15.792Z,71.91
2023-05-19T06:39:06.692Z,71.80
2023-05-19T06:39:57.605Z,71.60
2023-05-19T06:40:48.518Z,71.36
2023-05-19T06:41:39.423Z,71.16
2023-05-19T06:42:30.338Z,71.06
2023-05-19T06:43:21.267Z,71.06
2023-05-19T06:44:12.145Z,71.26
2023-05-19T06:45:03.084Z,71.26
2023-05-19T06:45:53.961Z,71.36
2023-05-19T06:46:44.912Z,71.36
2023-05-19T06:47:35.810Z,71.23
2023-05-19T06:48:26.714Z,71.02
2023-05-19T06:49:17.598Z,71.33
2023-05-19T06:50:08.513Z,71.23
2023-05-19T06:50:59.445Z,71.02
2023-05-19T06:51:50.319Z,70.82
2023-05-19T06:52:41.220Z,70.82
2023-05-19T06:53:32.122Z,70.92
2023-05-19T06:54:23.044Z,71.09
2023-05-19T06:55:13.944Z,70.99
2023-05-19T06:56:04.859Z,70.68
2023-05-19T06:56:55.767Z,70.38
2023-05-19T06:57:46.668Z,70.18
2023-05-19T06:58:37.581Z,70.18
2023-05-19T06:59:28.490Z,70.07
2023-05-19T07:00:21.365Z,70.07
2023-05-19T07:01:10.234Z,70.07
2023-05-19T07:02:01.188Z,69.94
2023-05-19T07:02:52.190Z,70.04
2023-05-19T07:03:43.180Z,70.04
2023-05-19T07:04:34.129Z,69.94
2023-05-19T07:05:25.042Z,69.74
2023-05-19T07:06:15.987Z,69.74
2023-05-19T07:07:06.846Z,69.64
2023-05-19T07:07:57.754Z,69.43
2023-05-19T07:08:48.673Z,69.23
2023-05-19T07:09:39.398Z,69.09
2023-05-19T07:10:30.379Z,69.20
2023-05-19T07:11:21.271Z,69.20
2023-05-19T07:12:12.168Z,69.09
2023-05-19T07:13:03.075Z,68.89
2023-05-19T07:13:53.989Z,68.69
2023-05-19T07:14:44.894Z,68.49
2023-05-19T07:15:35.815Z,68.49
2023-05-19T07:16:26.774Z,68.49
2023-05-19T07:17:17.666Z,68.49
2023-05-19T07:18:08.598Z,68.49
2023-05-19T07:18:59.491Z,68.49
2023-05-19T07:19:50.396Z,68.66
2023-05-19T07:20:41.279Z,68.66
2023-05-19T07:21:32.280Z,68.76
2023-05-19T07:22:23.121Z,68.96
2023-05-19T07:23:15.449Z,68.96
2023-05-19T07:24:04.965Z,68.96
2023-05-19T07:24:55.882Z,69.06
2023-05-19T07:25:46.789Z,69.06
2023-05-19T07:26:37.708Z,68.96
2023-05-19T07:27:28.612Z,68.76
2023-05-19T07:28:19.525Z,68.66
2023-05-19T07:29:10.421Z,68.76
2023-05-19T07:30:01.321Z,68.83
2023-05-19T07:30:52.232Z,68.93
2023-05-19T07:31:43.182Z,69.03
2023-05-19T07:32:34.147Z,69.03
2023-05-19T07:33:25.027Z,68.62
2023-05-19T07:34:15.953Z,68.22
2023-05-19T07:35:06.875Z,68.12
2023-05-19T07:35:57.794Z,68.01
2023-05-19T07:36:48.711Z,67.81
2023-05-19T07:37:39.588Z,67.71
2023-05-19T07:38:30.520Z,67.61
2023-05-19T07:39:21.517Z,67.41
2023-05-19T07:40:12.449Z,67.41
2023-05-19T07:41:03.328Z,67.27
2023-05-19T07:41:54.273Z,67.17
2023-05-19T07:42:45.164Z,67.27
2023-05-19T07:43:36.094Z,67.27
2023-05-19T07:44:26.992Z,67.17
2023-05-19T07:45:17.927Z,67.38
2023-05-19T07:46:08.964Z,67.47
2023-05-19T07:46:59.812Z,67.58
2023-05-19T07:47:51.810Z,67.27
2023-05-19T07:48:41.494Z,66.97
2023-05-19T07:49:32.351Z,66.86
2023-05-19T07:50:23.277Z,66.77
2023-05-19T07:51:14.175Z,66.56
2023-05-19T07:52:05.117Z,66.56
2023-05-19T07:52:55.980Z,66.56
2023-05-19T07:53:46.883Z,66.86
2023-05-19T07:54:37.807Z,67.03
2023-05-19T07:55:28.717Z,67.14
2023-05-19T07:56:19.637Z,66.74
2023-05-19T07:57:10.560Z,66.63
2023-05-19T07:58:01.488Z,66.43
2023-05-19T07:58:52.441Z,66.23
2023-05-19T07:59:43.385Z,66.13
2023-05-19T08:00:34.570Z,65.99
2023-05-19T08:01:24.981Z,65.79
2023-05-19T08:02:15.894Z,65.89
2023-05-19T08:03:07.070Z,66.09
2023-05-19T08:03:58.043Z,66.30
2023-05-19T08:04:49.008Z,66.19
2023-05-19T08:05:39.932Z,66.19
2023-05-19T08:06:30.851Z,66.19
2023-05-19T08:07:21.803Z,65.96
2023-05-19T08:08:12.689Z,66.06
2023-05-19T08:09:03.607Z,65.76
2023-05-19T08:09:54.536Z,65.86
2023-05-19T08:10:45.461Z,66.06
2023-05-19T08:11:36.386Z,66.06
2023-05-19T08:12:27.316Z,66.06
2023-05-19T08:13:18.235Z,65.93
2023-05-19T08:14:09.131Z,65.93
2023-05-19T08:15:01.335Z,65.73
2023-05-19T08:15:50.801Z,65.53
2023-05-19T08:16:41.704Z,65.53
2023-05-19T08:17:32.671Z,65.53
2023-05-19T08:18:23.549Z,65.32
2023-05-19T08:19:14.505Z,65.02
2023-05-19T08:20:05.404Z,64.92
2023-05-19T08:20:56.323Z,64.92
2023-05-19T08:21:47.249Z,64.79
2023-05-19T08:22:38.183Z,64.89
2023-05-19T08:23:29.083Z,64.89
2023-05-19T08:24:20.008Z,64.69
2023-05-19T08:25:10.932Z,64.58
2023-05-19T08:26:01.851Z,64.69
2023-05-19T08:26:52.818Z,64.79
2023-05-19T08:27:43.680Z,64.79
2023-05-19T08:28:34.595Z,64.69
2023-05-19T08:29:25.510Z,64.58
2023-05-19T08:30:16.443Z,64.79
2023-05-19T08:31:07.387Z,64.76
2023-05-19T08:31:58.287Z,64.76
2023-05-19T08:32:49.291Z,64.96
2023-05-19T08:33:40.177Z,64.86
2023-05-19T08:34:31.092Z,64.65
2023-05-19T08:35:22.032Z,64.52
2023-05-19T08:36:12.951Z,64.42
2023-05-19T08:37:03.898Z,64.22
2023-05-19T08:37:54.873Z,64.32
2023-05-19T08:38:45.728Z,64.42
2023-05-19T08:39:36.656Z,64.73
2023-05-19T08:40:27.585Z,64.93
2023-05-19T08:41:18.504Z,64.93
2023-05-19T08:42:09.424Z,65.03
2023-05-19T08:43:00.370Z,65.03
2023-05-19T08:43:51.256Z,64.90
2023-05-19T08:44:42.164Z,64.90
2023-05-19T08:45:33.342Z,64.70
2023-05-19T08:46:23.699Z,64.39
2023-05-19T08:47:14.599Z,63.99
2023-05-19T08:48:05.587Z,63.99
2023-05-19T08:48:56.549Z,64.19
2023-05-19T08:49:47.471Z,64.39
2023-05-19T08:50:38.391Z,63.89
2023-05-19T08:51:29.313Z,63.58
2023-05-19T08:52:20.238Z,63.58
2023-05-19T08:53:20.985Z,63.55
2023-05-19T08:54:03.077Z,63.15
2023-05-19T08:54:52.846Z,62.74
2023-05-19T08:55:43.775Z,62.04
2023-05-19T08:56:34.693Z,61.73
2023-05-19T08:57:25.610Z,61.60
2023-05-19T08:58:16.535Z,61.30
2023-05-19T08:59:07.466Z,60.80
2023-05-19T08:59:58.443Z,60.60
2023-05-19T09:00:49.405Z,60.29
2023-05-19T09:01:40.328Z,60.19
2023-05-19T09:02:31.253Z,60.06
2023-05-19T09:03:23.863Z,59.96
2023-05-19T09:04:13.275Z,60.06
2023-05-19T09:05:04.413Z,60.16
2023-05-19T09:05:55.337Z,60.16
2023-05-19T09:06:46.261Z,60.24
2023-05-19T09:07:37.229Z,60.13
2023-05-19T09:08:28.132Z,60.03
2023-05-19T09:09:19.026Z,59.83
2023-05-19T09:10:09.982Z,59.42
2023-05-19T09:11:00.918Z,59.40
2023-05-19T09:11:51.874Z,59.09
2023-05-19T09:12:42.800Z,59.09
2023-05-19T09:13:33.739Z,58.69
2023-05-19T09:14:24.688Z,58.29
2023-05-19T09:15:15.649Z,57.98
2023-05-19T09:16:06.681Z,57.76
2023-05-19T09:16:57.659Z,57.45
2023-05-19T09:17:48.574Z,57.05
2023-05-19T09:18:39.526Z,56.75
2023-05-19T09:19:30.491Z,56.55
2023-05-19T09:20:21.397Z,56.45
2023-05-19T09:21:12.314Z,56.15
2023-05-19T09:22:03.274Z,55.84
2023-05-19T09:22:54.180Z,55.84
2023-05-19T09:23:45.128Z,55.94
2023-05-19T09:24:36.061Z,56.04
2023-05-19T09:25:27.945Z,55.54
2023-05-19T09:26:17.652Z,55.34
2023-05-19T09:27:08.568Z,55.51
2023-05-19T09:27:59.508Z,55.51
2023-05-19T09:28:50.449Z,55.54
2023-05-19T09:29:41.363Z,55.71
2023-05-19T09:30:32.313Z,55.64
2023-05-19T09:31:23.241Z,55.94
2023-05-19T09:32:14.283Z,55.94
2023-05-19T09:33:05.153Z,55.84
2023-05-19T09:33:56.084Z,55.94
2023-05-19T09:34:47.011Z,56.15
2023-05-19T09:35:37.962Z,56.55
2023-05-19T09:36:28.880Z,56.55
2023-05-19T09:37:19.846Z,56.24
2023-05-19T09:38:10.750Z,56.24
2023-05-19T09:39:01.713Z,56.15
2023-05-19T09:39:52.631Z,55.74
2023-05-19T09:40:43.553Z,55.34
2023-05-19T09:41:34.488Z,55.44
2023-05-19T09:42:25.404Z,55.84
2023-05-19T09:43:16.338Z,55.82
2023-05-19T09:44:07.257Z,55.62
2023-05-19T09:44:58.182Z,56.02
2023-05-19T09:45:49.128Z,56.02
2023-05-19T09:46:40.143Z,55.82
2023-05-19T09:47:31.185Z,55.41
2023-05-19T09:48:22.082Z,54.81
2023-05-19T09:49:13.035Z,54.58
2023-05-19T09:50:03.982Z,54.68
2023-05-19T09:50:54.930Z,54.79
2023-05-19T09:51:45.876Z,54.68
2023-05-19T09:52:36.818Z,54.38
2023-05-19T09:53:27.751Z,54.38
2023-05-19T09:54:18.713Z,53.95
2023-05-19T09:55:09.627Z,53.85
2023-05-19T09:56:00.568Z,53.85
2023-05-19T09:56:51.489Z,53.65
2023-05-19T09:57:42.422Z,53.14
2023-05-19T09:58:33.354Z,52.54
2023-05-19T09:59:24.294Z,52.72
2023-05-19T10:00:15.217Z,53.12
2023-05-19T10:01:06.244Z,53.42
2023-05-19T10:01:57.173Z,53.52
2023-05-19T10:02:48.111Z,53.32
2023-05-19T10:03:39.005Z,53.09
2023-05-19T10:04:30.041Z,52.80
2023-05-19T10:05:21.033Z,52.49
2023-05-19T10:06:11.959Z,52.29
2023-05-19T10:07:02.914Z,52.39
2023-05-19T10:07:53.842Z,51.89
2023-05-19T10:08:44.785Z,51.86
2023-05-19T10:09:35.756Z,52.06
2023-05-19T10:10:26.666Z,51.97
2023-05-19T10:11:17.592Z,51.86
2023-05-19T10:12:08.526Z,51.36
2023-05-19T10:12:59.469Z,51.56
2023-05-19T10:13:50.421Z,51.56
2023-05-19T10:14:41.358Z,51.56
2023-05-19T10:15:34.443Z,51.26
2023-05-19T10:16:23.281Z,51.16
2023-05-19T10:17:14.185Z,51.14
2023-05-19T10:18:05.179Z,50.93
2023-05-19T10:18:56.141Z,51.04
2023-05-19T10:19:47.017Z,51.44
2023-05-19T10:20:37.955Z,51.44
2023-05-19T10:21:28.882Z,51.04
2023-05-19T10:22:19.816Z,50.84
2023-05-19T10:23:10.761Z,50.93
2023-05-19T10:24:01.712Z,50.81
2023-05-19T10:24:52.652Z,50.71
2023-05-19T10:25:43.555Z,50.71
2023-05-19T10:26:34.490Z,50.71
2023-05-19T10:27:25.422Z,50.81
2023-05-19T10:28:16.386Z,50.71
2023-05-19T10:29:07.311Z,50.91
2023-05-19T10:29:58.266Z,50.68
2023-05-19T10:30:49.210Z,50.68
2023-05-19T10:31:40.178Z,50.18
2023-05-19T10:32:31.235Z,49.98
2023-05-19T10:33:22.186Z,49.98
2023-05-19T10:34:13.058Z,49.98
2023-05-19T10:35:03.994Z,49.98
2023-05-19T10:35:54.939Z,49.38
2023-05-19T10:36:45.863Z,49.38
2023-05-19T10:37:36.804Z,49.58
2023-05-19T10:38:27.728Z,49.68
2023-05-19T10:39:18.479Z,49.38
2023-05-19T10:40:09.529Z,49.46
2023-05-19T10:41:00.227Z,49.36
2023-05-19T10:41:51.174Z,49.16
2023-05-19T10:42:42.107Z,49.26
2023-05-19T10:43:33.065Z,49.16
2023-05-19T10:44:23.995Z,49.05
2023-05-19T10:45:15.207Z,48.86
2023-05-19T10:46:06.152Z,49.16
2023-05-19T10:46:57.316Z,49.05
2023-05-19T10:47:48.312Z,48.96
2023-05-19T10:48:39.211Z,49.05
2023-05-19T10:49:30.145Z,49.36
2023-05-19T10:50:21.067Z,49.26
2023-05-19T10:51:12.044Z,49.16
2023-05-19T10:52:03.057Z,49.54
2023-05-19T10:52:53.963Z,49.54
2023-05-19T10:53:44.914Z,49.23
2023-05-19T10:54:35.849Z,49.54
2023-05-19T10:55:26.912Z,49.51